createdAt,value
2017-11-03T00:01:23.039Z,22.85
2017-11-03T00:03:50.664Z,22.65
2017-11-03T00:06:19.260Z,21.58
2017-11-03T00:11:20.756Z,24.17
2017-11-03T00:13:48.339Z,23.02
2017-11-03T00:16:16.349Z,25.65
2017-11-03T00:18:43.984Z,21.80
2017-11-03T00:21:11.566Z,24.37
2017-11-03T00:23:39.159Z,21.80
2017-11-03T00:26:07.537Z,24.25
2017-11-03T00:28:35.145Z,22.05
2017-11-03T00:31:02.738Z,22.92
2017-11-03T00:33:30.338Z,24.77
2017-11-03T00:35:57.938Z,22.08
2017-11-03T00:38:25.538Z,24.05
2017-11-03T00:40:53.496Z,21.87
2017-11-03T00:43:21.093Z,27.50
2017-11-03T00:45:48.664Z,25.85
2017-11-03T00:48:16.281Z,25.73
2017-11-03T00:50:43.867Z,24.05
2017-11-03T00:53:11.478Z,25.92
2017-11-03T00:55:39.061Z,25.42
2017-11-03T00:58:06.650Z,25.35
2017-11-03T01:00:34.271Z,22.65
2017-11-03T01:03:01.840Z,25.60
2017-11-03T01:05:29.756Z,25.50
2017-11-03T01:07:57.362Z,25.10
2017-11-03T01:10:24.926Z,24.80
2017-11-03T01:12:52.579Z,25.30
2017-11-03T01:15:20.910Z,25.45
2017-11-03T01:17:48.541Z,26.83
2017-11-03T01:20:16.174Z,28.15
2017-11-03T01:22:43.762Z,25.00
2017-11-03T01:25:11.359Z,26.42
2017-11-03T01:27:38.972Z,25.10
2017-11-03T01:30:06.550Z,26.23
2017-11-03T01:32:34.122Z,25.27
2017-11-03T01:35:02.519Z,25.50
2017-11-03T01:37:30.184Z,24.73
2017-11-03T01:39:57.792Z,28.48
2017-11-03T01:42:25.377Z,29.08
2017-11-03T01:44:52.992Z,28.67
2017-11-03T01:47:20.588Z,28.33
2017-11-03T01:49:48.178Z,27.52
2017-11-03T01:52:16.685Z,29.60
2017-11-03T01:54:44.299Z,31.10
2017-11-03T01:57:11.889Z,32.60
2017-11-03T01:59:39.529Z,32.47
2017-11-03T02:02:07.182Z,32.20
2017-11-03T02:04:34.795Z,37.20
2017-11-03T02:07:02.968Z,32.40
2017-11-03T02:09:30.577Z,33.80
2017-11-03T02:11:58.190Z,35.22
2017-11-03T02:14:25.819Z,35.53
2017-11-03T02:16:53.391Z,33.83
2017-11-03T02:19:21.003Z,35.08
2017-11-03T02:21:48.639Z,40.60
2017-11-03T02:24:17.050Z,35.55
2017-11-03T02:26:44.658Z,35.15
2017-11-03T02:29:12.239Z,33.63
2017-11-03T02:31:39.853Z,35.70
2017-11-03T02:34:07.459Z,34.80
2017-11-03T02:36:35.065Z,37.35
2017-11-03T02:39:02.690Z,38.22
2017-11-03T02:41:31.063Z,33.25
2017-11-03T02:43:59.397Z,37.83
2017-11-03T02:46:27.013Z,32.35
2017-11-03T02:48:54.622Z,30.10
2017-11-03T02:51:22.455Z,28.75
2017-11-03T02:53:50.075Z,25.92
2017-11-03T02:56:17.660Z,32.47
2017-11-03T02:58:45.317Z,31.65
2017-11-03T03:01:13.666Z,35.67
2017-11-03T03:03:41.261Z,43.13
2017-11-03T03:06:09.702Z,38.53
2017-11-03T03:08:37.284Z,44.45
2017-11-03T03:11:05.668Z,34.00
2017-11-03T03:13:34.045Z,45.38
2017-11-03T03:16:03.043Z,43.08
2017-11-03T03:18:31.432Z,30.17
2017-11-03T03:20:59.795Z,30.95
2017-11-03T03:23:27.414Z,32.47
2017-11-03T03:25:55.023Z,32.63
2017-11-03T03:28:22.588Z,31.87
2017-11-03T03:30:50.269Z,43.42
2017-11-03T03:33:17.885Z,40.65
2017-11-03T03:35:46.126Z,31.23
2017-11-03T03:38:13.689Z,36.60
2017-11-03T03:40:41.292Z,48.75
2017-11-03T03:43:08.882Z,35.92
2017-11-03T03:45:36.723Z,53.10
2017-11-03T03:48:04.369Z,39.10
2017-11-03T03:50:32.280Z,33.78
2017-11-03T03:52:59.863Z,32.38
2017-11-03T03:55:28.132Z,57.60
2017-11-03T03:57:55.847Z,51.25
2017-11-03T04:00:23.481Z,42.05
2017-11-03T04:02:51.354Z,27.23
2017-11-03T04:05:19.316Z,39.15
2017-11-03T04:07:46.946Z,43.67
2017-11-03T04:10:14.544Z,42.00
2017-11-03T04:12:43.041Z,46.25
2017-11-03T04:15:10.633Z,33.20
2017-11-03T04:17:38.273Z,52.83
2017-11-03T04:20:05.909Z,45.00
2017-11-03T04:22:35.042Z,45.35
2017-11-03T04:25:02.663Z,42.00
2017-11-03T04:27:30.324Z,36.55
2017-11-03T04:29:57.916Z,41.88
2017-11-03T04:32:26.639Z,52.62
2017-11-03T04:34:55.017Z,53.42
2017-11-03T04:37:23.403Z,68.05
2017-11-03T04:39:51.767Z,71.05
2017-11-03T04:42:19.362Z,84.05
2017-11-03T04:44:47.441Z,80.87
2017-11-03T04:47:15.045Z,83.70
2017-11-03T04:49:43.345Z,49.38
2017-11-03T04:52:10.943Z,57.95
2017-11-03T04:54:39.290Z,43.40
2017-11-03T04:57:07.676Z,37.75
2017-11-03T04:59:35.550Z,41.53
2017-11-03T05:02:03.140Z,43.00
2017-11-03T05:04:30.753Z,50.72
2017-11-03T05:06:58.427Z,43.70
2017-11-03T05:09:26.012Z,48.25
2017-11-03T05:11:53.608Z,48.47
2017-11-03T05:14:21.521Z,47.30
2017-11-03T05:16:49.204Z,50.70
2017-11-03T05:19:16.801Z,52.90
2017-11-03T05:21:44.410Z,50.83
2017-11-03T05:24:12.252Z,72.97
2017-11-03T05:26:39.900Z,50.58
2017-11-03T05:29:08.335Z,49.80
2017-11-03T05:31:36.671Z,52.85
2017-11-03T05:34:04.309Z,52.30
2017-11-03T05:36:33.028Z,47.38
2017-11-03T05:39:00.671Z,55.22
2017-11-03T05:41:29.057Z,43.35
2017-11-03T05:43:57.419Z,51.80
2017-11-03T05:46:25.031Z,42.47
2017-11-03T05:48:52.614Z,43.38
2017-11-03T05:51:20.217Z,45.60
2017-11-03T05:53:48.598Z,41.63
2017-11-03T05:56:16.211Z,42.72
2017-11-03T05:58:43.874Z,43.15
2017-11-03T06:01:11.448Z,40.58
2017-11-03T06:03:39.075Z,31.95
2017-11-03T06:06:07.445Z,41.85
2017-11-03T06:08:35.814Z,41.03
2017-11-03T06:11:03.476Z,42.28
2017-11-03T06:13:31.044Z,36.72
2017-11-03T06:15:59.378Z,37.88
2017-11-03T06:18:26.983Z,33.20
2017-11-03T06:20:55.373Z,28.70
2017-11-03T06:23:23.735Z,28.02
2017-11-03T06:25:51.343Z,28.48
2017-11-03T06:28:18.929Z,26.48
2017-11-03T06:30:46.533Z,26.40
2017-11-03T06:33:14.930Z,31.90
2017-11-03T06:35:43.131Z,30.12
2017-11-03T06:38:11.485Z,28.05
2017-11-03T06:40:39.115Z,26.75
2017-11-03T06:43:07.469Z,27.52
2017-11-03T06:45:35.908Z,26.83
2017-11-03T06:48:03.548Z,28.50
2017-11-03T06:50:31.533Z,26.17
2017-11-03T06:52:59.176Z,27.95
2017-11-03T06:55:26.760Z,29.60
2017-11-03T06:57:54.333Z,26.50
2017-11-03T07:00:22.037Z,25.67
2017-11-03T07:02:49.631Z,25.80
2017-11-03T07:05:17.232Z,27.00
2017-11-03T07:07:44.864Z,25.55
2017-11-03T07:10:12.721Z,28.77
2017-11-03T07:12:40.339Z,29.55
2017-11-03T07:15:08.270Z,27.45
2017-11-03T07:17:35.850Z,28.62
2017-11-03T07:20:03.453Z,27.80
2017-11-03T07:22:31.154Z,27.77
2017-11-03T07:24:59.409Z,27.80
2017-11-03T07:27:27.035Z,28.70
2017-11-03T07:29:54.641Z,28.42
2017-11-03T07:32:22.248Z,28.40
2017-11-03T07:34:49.859Z,30.48
2017-11-03T07:37:17.491Z,30.90
2017-11-03T07:39:45.854Z,30.73
2017-11-03T07:42:13.446Z,32.65
2017-11-03T07:44:41.041Z,34.35
2017-11-03T07:47:08.611Z,35.35
2017-11-03T07:49:36.903Z,31.45
2017-11-03T07:52:04.582Z,36.58
2017-11-03T07:54:32.917Z,37.00
2017-11-03T07:57:00.589Z,35.35
2017-11-03T07:59:28.156Z,34.90
2017-11-03T08:01:56.722Z,35.78
2017-11-03T08:04:24.326Z,34.10
2017-11-03T08:06:52.722Z,36.22
2017-11-03T08:09:21.110Z,36.20
2017-11-03T08:11:48.733Z,38.88
2017-11-03T08:14:17.143Z,36.40
2017-11-03T08:16:44.754Z,34.45
2017-11-03T08:19:12.343Z,36.75
2017-11-03T08:21:40.714Z,37.35
2017-11-03T08:24:08.300Z,41.15
2017-11-03T08:26:36.704Z,41.80
2017-11-03T08:29:04.338Z,39.63
2017-11-03T08:31:32.708Z,41.70
2017-11-03T08:34:01.098Z,40.65
2017-11-03T08:36:28.807Z,43.30
2017-11-03T08:38:57.215Z,42.10
2017-11-03T08:41:25.427Z,42.62
2017-11-03T08:43:53.011Z,44.15
2017-11-03T08:46:21.532Z,43.28
2017-11-03T08:48:49.155Z,46.63
2017-11-03T08:51:16.839Z,48.30
2017-11-03T08:53:44.481Z,48.65
2017-11-03T08:56:12.163Z,48.25
2017-11-03T08:58:39.796Z,48.83
2017-11-03T09:01:07.423Z,48.13
2017-11-03T09:03:36.385Z,46.08
2017-11-03T09:06:03.975Z,45.22
2017-11-03T09:08:32.330Z,46.97
2017-11-03T09:10:59.984Z,48.35
2017-11-03T09:13:27.592Z,46.28
2017-11-03T09:15:55.199Z,45.92
2017-11-03T09:18:22.855Z,45.30
2017-11-03T09:20:50.536Z,45.63
2017-11-03T09:23:18.213Z,49.88
2017-11-03T09:25:46.600Z,44.08
2017-11-03T09:28:15.010Z,43.87
2017-11-03T09:30:42.618Z,46.37
2017-11-03T09:33:11.001Z,48.10
2017-11-03T09:35:38.610Z,46.25
2017-11-03T09:38:06.228Z,47.75
2017-11-03T09:40:34.652Z,45.53
2017-11-03T09:43:02.221Z,48.38
2017-11-03T09:45:29.869Z,50.88
2017-11-03T09:47:58.268Z,49.13
2017-11-03T09:50:25.865Z,48.70
2017-11-03T09:52:53.875Z,50.92
2017-11-03T09:55:21.513Z,51.08
2017-11-03T09:57:49.171Z,45.30
2017-11-03T10:00:16.872Z,49.20
2017-11-03T10:02:44.467Z,48.85
2017-11-03T10:05:12.180Z,53.95
2017-11-03T10:07:40.477Z,49.35
2017-11-03T10:10:09.692Z,45.30
2017-11-03T10:12:37.361Z,42.50
2017-11-03T10:15:05.403Z,47.30
2017-11-03T10:17:33.052Z,44.15
2017-11-03T10:20:01.377Z,42.03
2017-11-03T10:22:29.018Z,43.97
2017-11-03T10:24:57.402Z,40.03
2017-11-03T10:27:25.788Z,41.58
2017-11-03T10:29:53.407Z,39.92
2017-11-03T10:32:21.036Z,41.50
2017-11-03T10:34:49.421Z,41.05
2017-11-03T10:37:17.110Z,40.47
2017-11-03T10:39:44.777Z,39.78
2017-11-03T10:42:12.416Z,38.28
2017-11-03T10:44:40.802Z,37.88
2017-11-03T10:47:08.398Z,41.72
2017-11-03T10:49:36.061Z,39.17
2017-11-03T10:52:03.765Z,38.38
2017-11-03T10:54:32.195Z,41.40
2017-11-03T10:56:59.809Z,40.75
2017-11-03T10:59:28.174Z,41.30
2017-11-03T11:01:55.781Z,43.35
2017-11-03T11:04:23.458Z,40.60
2017-11-03T11:06:51.077Z,40.33
2017-11-03T11:09:19.548Z,41.63
2017-11-03T11:11:48.303Z,45.80
2017-11-03T11:14:16.725Z,41.95
2017-11-03T11:16:44.352Z,44.03
2017-11-03T11:19:12.083Z,41.95
2017-11-03T11:21:39.692Z,43.70
2017-11-03T11:24:08.113Z,44.07
2017-11-03T11:26:36.516Z,43.03
2017-11-03T11:29:05.632Z,41.87
2017-11-03T11:31:33.263Z,44.27
2017-11-03T11:34:01.638Z,40.87
2017-11-03T11:36:29.229Z,38.33
2017-11-03T11:38:56.842Z,39.20
2017-11-03T11:41:24.468Z,44.90
2017-11-03T11:43:52.869Z,42.78
2017-11-03T11:46:20.477Z,45.23
2017-11-03T11:48:48.128Z,43.90
2017-11-03T11:51:15.792Z,43.03
2017-11-03T11:53:43.428Z,39.80
2017-11-03T11:56:11.060Z,43.77
2017-11-03T11:58:39.464Z,42.20
2017-11-03T12:01:07.113Z,40.17
2017-11-03T12:03:34.756Z,41.63
2017-11-03T12:06:02.764Z,39.00
2017-11-03T12:08:30.351Z,40.37
2017-11-03T12:10:57.972Z,41.67
2017-11-03T12:13:25.574Z,39.03
2017-11-03T12:15:53.153Z,43.47
2017-11-03T12:18:20.778Z,37.60
2017-11-03T12:20:48.426Z,38.93
2017-11-03T12:23:17.118Z,36.27
2017-11-03T12:25:45.495Z,40.63
2017-11-03T12:28:13.109Z,40.20
2017-11-03T12:30:41.479Z,37.30
2017-11-03T12:33:09.496Z,38.40
2017-11-03T12:35:37.998Z,37.03
2017-11-03T12:38:05.616Z,38.87
2017-11-03T12:40:33.262Z,39.40
2017-11-03T12:43:00.860Z,41.30
2017-11-03T12:45:28.539Z,37.43
2017-11-03T12:47:56.963Z,37.20
2017-11-03T12:50:25.505Z,39.07
2017-11-03T12:52:53.113Z,40.43
2017-11-03T12:55:20.755Z,39.53
2017-11-03T12:57:49.156Z,40.00
2017-11-03T13:00:16.770Z,34.90
2017-11-03T13:02:44.380Z,38.50
2017-11-03T13:05:12.056Z,37.47
2017-11-03T13:07:39.705Z,38.03
2017-11-03T13:10:07.442Z,38.00
2017-11-03T13:12:35.805Z,39.03
2017-11-03T13:15:04.311Z,37.67
2017-11-03T13:17:32.742Z,39.10
2017-11-03T13:20:00.350Z,37.63
2017-11-03T13:22:28.758Z,39.87
2017-11-03T13:24:56.866Z,39.10
2017-11-03T13:27:24.515Z,36.50
2017-11-03T13:29:52.177Z,37.30
2017-11-03T13:32:19.862Z,37.50
2017-11-03T13:34:47.553Z,35.53
2017-11-03T13:37:15.115Z,39.63
2017-11-03T13:39:42.692Z,38.40
2017-11-03T13:42:10.315Z,36.00
2017-11-03T13:44:38.025Z,39.40
2017-11-03T13:47:05.678Z,37.37
2017-11-03T13:49:34.248Z,43.03
2017-11-03T13:52:02.808Z,42.80
2017-11-03T13:54:31.234Z,39.53
2017-11-03T13:56:59.778Z,43.10
2017-11-03T13:59:27.407Z,41.00
2017-11-03T14:01:55.925Z,38.90
2017-11-03T14:04:23.513Z,35.30
2017-11-03T14:06:51.155Z,39.77
2017-11-03T14:09:18.797Z,39.07
2017-11-03T14:11:47.247Z,42.13
2017-11-03T14:14:14.813Z,41.70
2017-11-03T14:16:42.418Z,44.77
2017-11-03T14:19:10.986Z,43.70
2017-11-03T14:21:39.315Z,42.97
2017-11-03T14:24:06.918Z,42.47
2017-11-03T14:26:35.297Z,57.33
2017-11-03T14:29:03.829Z,40.63
2017-11-03T14:31:31.449Z,40.97
2017-11-03T14:33:59.824Z,38.43
2017-11-03T14:36:28.213Z,39.80
2017-11-03T14:38:56.544Z,38.47
2017-11-03T14:41:24.201Z,40.37
2017-11-03T14:43:51.796Z,41.35
2017-11-03T14:46:19.422Z,41.40
2017-11-03T14:48:47.176Z,40.17
2017-11-03T14:51:14.768Z,38.20
2017-11-03T14:53:42.370Z,41.87
2017-11-03T14:56:10.049Z,43.37
2017-11-03T14:58:37.877Z,43.03
2017-11-03T15:03:39.932Z,38.50
2017-11-03T15:06:08.389Z,40.80
2017-11-03T15:08:35.993Z,37.40
2017-11-03T15:11:03.592Z,41.37
2017-11-03T15:13:31.171Z,40.03
2017-11-03T15:15:58.748Z,38.93
2017-11-03T15:18:26.410Z,38.40
2017-11-03T15:20:53.984Z,41.33
2017-11-03T15:23:21.577Z,37.60
2017-11-03T15:25:49.265Z,39.60
2017-11-03T15:28:16.859Z,40.07
2017-11-03T15:30:45.292Z,41.53
2017-11-03T15:33:12.927Z,36.90
2017-11-03T15:35:40.672Z,36.70
2017-11-03T15:38:08.261Z,40.57
2017-11-03T15:40:35.940Z,40.07
2017-11-03T15:43:03.574Z,37.80
2017-11-03T15:45:31.895Z,40.80
2017-11-03T15:47:59.835Z,38.40
2017-11-03T15:50:28.000Z,36.47
2017-11-03T15:52:56.388Z,39.50
2017-11-03T15:55:25.572Z,40.03
2017-11-03T15:57:53.930Z,38.50
2017-11-03T16:00:21.572Z,42.17
2017-11-03T16:02:49.191Z,38.70
2017-11-03T16:05:16.786Z,39.37
2017-11-03T16:07:44.417Z,38.53
2017-11-03T16:10:11.985Z,41.42
2017-11-03T16:12:39.584Z,38.95
2017-11-03T16:15:07.184Z,39.70
2017-11-03T16:17:34.867Z,41.43
2017-11-03T16:20:02.497Z,39.00
2017-11-03T16:22:30.894Z,40.15
2017-11-03T16:24:58.617Z,40.37
2017-11-03T16:27:26.201Z,39.78
2017-11-03T16:29:53.833Z,41.47
2017-11-03T16:32:21.440Z,40.37
2017-11-03T16:34:49.142Z,38.67
2017-11-03T16:37:16.768Z,38.63
2017-11-03T16:39:45.249Z,40.37
2017-11-03T16:42:12.874Z,38.67
2017-11-03T16:44:41.484Z,36.30
2017-11-03T16:47:09.074Z,35.27
2017-11-03T16:49:36.717Z,39.67
2017-11-03T16:52:04.302Z,35.65
2017-11-03T16:54:31.908Z,34.20
2017-11-03T16:57:00.314Z,35.45
2017-11-03T16:59:27.934Z,34.60
2017-11-03T17:01:57.030Z,34.05
2017-11-03T17:04:25.056Z,40.00
2017-11-03T17:06:52.698Z,35.30
2017-11-03T17:09:20.381Z,30.80
2017-11-03T17:11:48.030Z,34.88
2017-11-03T17:14:15.709Z,30.92
2017-11-03T17:16:43.349Z,32.70
2017-11-03T17:19:10.958Z,34.05
2017-11-03T17:21:38.617Z,32.70
2017-11-03T17:24:06.407Z,33.13
2017-11-03T17:26:34.801Z,32.28
2017-11-03T17:29:03.174Z,40.45
2017-11-03T17:31:30.847Z,35.55
2017-11-03T17:33:58.451Z,30.83
2017-11-03T17:36:26.097Z,33.03
2017-11-03T17:38:53.857Z,32.40
2017-11-03T17:41:21.955Z,31.77
2017-11-03T17:43:49.604Z,33.60
2017-11-03T17:46:17.221Z,32.92
2017-11-03T17:48:45.638Z,33.92
2017-11-03T17:51:13.333Z,32.40
2017-11-03T17:53:40.955Z,29.95
2017-11-03T17:56:08.600Z,30.52
2017-11-03T17:58:36.198Z,29.50
2017-11-03T18:01:03.821Z,29.05
2017-11-03T18:03:32.115Z,28.40
2017-11-03T18:06:00.136Z,29.33
2017-11-03T18:08:27.772Z,28.00
2017-11-03T18:10:56.406Z,28.87
2017-11-03T18:13:25.093Z,30.00
2017-11-03T18:15:52.682Z,29.75
2017-11-03T18:18:20.336Z,29.20
2017-11-03T18:20:47.909Z,31.58
2017-11-03T18:23:15.527Z,28.25
2017-11-03T18:25:44.026Z,31.12
2017-11-03T18:28:11.610Z,31.23
2017-11-03T18:30:39.241Z,32.95
2017-11-03T18:33:07.365Z,34.00
2017-11-03T18:35:35.044Z,28.67
2017-11-03T18:38:02.669Z,28.05
2017-11-03T18:40:30.317Z,26.37
2017-11-03T18:42:57.963Z,29.40
2017-11-03T18:45:25.890Z,27.95
2017-11-03T18:47:55.369Z,27.73
2017-11-03T18:50:22.981Z,27.98
2017-11-03T18:52:50.654Z,27.40
2017-11-03T18:55:18.289Z,26.40
2017-11-03T18:57:47.545Z,26.77
2017-11-03T19:00:15.319Z,26.98
2017-11-03T19:02:43.027Z,29.80
2017-11-03T19:05:11.944Z,32.10
2017-11-03T19:07:39.617Z,31.42
2017-11-03T19:10:07.295Z,29.17
2017-11-03T19:12:34.951Z,28.30
2017-11-03T19:15:03.656Z,28.48
2017-11-03T19:17:31.282Z,31.30
2017-11-03T19:19:59.083Z,32.67
2017-11-03T19:22:26.712Z,29.85
2017-11-03T19:24:54.596Z,32.10
2017-11-03T19:27:22.220Z,32.83
2017-11-03T19:29:49.827Z,31.60
2017-11-03T19:32:17.443Z,34.58
2017-11-03T19:34:45.052Z,29.05
2017-11-03T19:37:12.719Z,34.17
2017-11-03T19:39:40.340Z,32.97
2017-11-03T19:42:08.031Z,34.70
2017-11-03T19:44:35.657Z,30.17
2017-11-03T19:47:03.223Z,31.45
2017-11-03T19:49:30.829Z,29.05
2017-11-03T19:51:59.585Z,29.85
2017-11-03T19:54:27.195Z,29.77
2017-11-03T19:56:54.803Z,33.17
2017-11-03T19:59:22.487Z,30.95
2017-11-03T20:01:51.086Z,30.48
2017-11-03T20:04:18.693Z,31.85
2017-11-03T20:06:46.322Z,33.53
2017-11-03T20:09:13.911Z,31.90
2017-11-03T20:11:41.578Z,31.40
2017-11-03T20:14:09.224Z,35.15
2017-11-03T20:16:36.816Z,33.83
2017-11-03T20:19:05.213Z,34.60
2017-11-03T20:21:33.642Z,36.38
2017-11-03T20:24:01.283Z,35.65
2017-11-03T20:26:28.917Z,91.50
2017-11-03T20:28:57.278Z,37.45
2017-11-03T20:31:24.935Z,38.85
2017-11-03T20:33:52.574Z,39.15
2017-11-03T20:36:20.165Z,34.17
2017-11-03T20:38:48.618Z,38.25
2017-11-03T20:41:16.993Z,36.17
2017-11-03T20:43:44.651Z,35.22
2017-11-03T20:46:12.237Z,34.83
2017-11-03T20:48:39.888Z,37.45
2017-11-03T20:51:07.639Z,38.53
2017-11-03T20:53:36.037Z,40.10
2017-11-03T20:56:03.697Z,43.80
2017-11-03T20:58:32.982Z,40.70
2017-11-03T21:01:00.686Z,40.35
2017-11-03T21:03:29.046Z,38.50
2017-11-03T21:05:56.675Z,37.45
2017-11-03T21:08:24.451Z,41.15
2017-11-03T21:10:52.106Z,43.80
2017-11-03T21:13:20.485Z,34.13
2017-11-03T21:15:48.145Z,41.75
2017-11-03T21:18:15.857Z,63.55
2017-11-03T21:20:44.187Z,35.28
2017-11-03T21:23:12.632Z,46.30
2017-11-03T21:25:40.327Z,36.45
2017-11-03T21:28:07.900Z,39.05
2017-11-03T21:30:35.504Z,38.75
2017-11-03T21:33:04.229Z,43.70
2017-11-03T21:35:32.001Z,40.55
2017-11-03T21:37:59.610Z,118.07
2017-11-03T21:40:28.657Z,130.20
2017-11-03T21:42:56.254Z,65.62
2017-11-03T21:45:25.030Z,52.33
2017-11-03T21:47:52.652Z,38.30
2017-11-03T21:50:21.186Z,47.92
2017-11-03T21:52:48.776Z,43.87
2017-11-03T21:55:16.656Z,41.03
2017-11-03T21:57:44.213Z,35.03
2017-11-03T22:00:11.817Z,42.22
2017-11-03T22:02:39.466Z,32.67
2017-11-03T22:05:07.114Z,36.92
2017-11-03T22:07:35.505Z,35.13
2017-11-03T22:10:03.097Z,36.15
2017-11-03T22:12:30.766Z,37.05
2017-11-03T22:14:59.775Z,40.17
2017-11-03T22:17:28.188Z,38.80
2017-11-03T22:19:55.747Z,37.10
2017-11-03T22:22:23.326Z,36.30
2017-11-03T22:24:50.949Z,37.10
2017-11-03T22:27:18.525Z,39.47
2017-11-03T22:29:46.104Z,36.80
2017-11-03T22:32:13.653Z,37.65
2017-11-03T22:34:41.331Z,38.97
2017-11-03T22:37:09.086Z,40.78
2017-11-03T22:39:36.700Z,38.45
2017-11-03T22:42:04.396Z,37.55
2017-11-03T22:44:31.963Z,37.80
2017-11-03T22:46:59.573Z,35.42
2017-11-03T22:49:27.189Z,35.65
2017-11-03T22:51:54.751Z,35.85
2017-11-03T22:54:22.401Z,36.40
2017-11-03T22:56:50.017Z,35.47
2017-11-03T22:59:17.635Z,37.08
2017-11-03T23:01:45.246Z,33.50
2017-11-03T23:04:13.015Z,35.63
2017-11-03T23:06:40.613Z,36.03
2017-11-03T23:09:09.077Z,33.72
2017-11-03T23:11:36.865Z,34.40
2017-11-03T23:14:05.245Z,34.20
2017-11-03T23:16:32.886Z,34.90
2017-11-03T23:19:00.526Z,34.03
2017-11-03T23:21:28.148Z,34.25
2017-11-03T23:23:56.551Z,32.58
2017-11-03T23:26:24.182Z,33.50
2017-11-03T23:28:52.544Z,33.40
2017-11-03T23:31:20.183Z,34.45
2017-11-03T23:33:48.562Z,33.83
2017-11-03T23:36:16.216Z,33.90
2017-11-03T23:38:43.811Z,32.30
2017-11-03T23:41:11.468Z,32.58
2017-11-03T23:43:39.461Z,35.15
2017-11-03T23:46:07.809Z,34.22
2017-11-03T23:48:35.380Z,33.70
2017-11-03T23:51:03.046Z,30.77
2017-11-03T23:53:30.636Z,35.85
2017-11-03T23:55:58.292Z,36.17
2017-11-03T23:58:25.905Z,36.00
